ADDS METAR Data INFO
IDs: Format: Raw Decoded Include TAF

Data at: 2336 UTC 15 Dec 2017

KVKS 152315Z AUTO 00000KT 10SM CLR 07/M03 A3025 RMK A01
KVKS 152255Z AUTO 00000KT 10SM CLR 07/M03 A3025 RMK A01
KVKS 152235Z AUTO 33003KT 10SM CLR 08/M03 A3025 RMK A01
KVKS 152215Z AUTO 34004KT 10SM CLR 08/M03 A3024 RMK A01
KVKS 152155Z AUTO 00000KT 10SM CLR 08/M04 A3024 RMK A01
KVKS 152135Z AUTO 34004KT 10SM CLR 09/M04 A3024 RMK A01
KVKS 152115Z AUTO 00000KT 10SM CLR 09/M04 A3024 RMK A01
KVKS 152055Z AUTO 00000KT 10SM CLR 09/M04 A3025 RMK A01
KVKS 152035Z AUTO 00000KT 10SM CLR 08/M04 A3025 RMK A01
KVKS 152015Z AUTO 09004KT 10SM CLR 08/M04 A3025 RMK A01
KVKS 151955Z AUTO 00000KT 10SM CLR 08/M04 A3026 RMK A01
KVKS 151935Z AUTO 01005KT 10SM CLR 08/M04 A3026 RMK A01
KVKS 151915Z AUTO VRB06KT 10SM CLR 08/M04 A3026 RMK A01
KVKS 151855Z AUTO 02006KT 10SM CLR 08/M04 A3026 RMK A01
KVKS 151835Z AUTO VRB04KT 10SM CLR 08/M04 A3027 RMK A01
KVKS 151815Z AUTO VRB04KT 10SM CLR 08/M03 A3029 RMK A01
KVKS 151755Z AUTO 35005KT 10SM CLR 08/M03 A3029 RMK A01
KVKS 151735Z AUTO 34007KT 10SM CLR 08/M03 A3030 RMK A01
KVKS 151715Z AUTO 00000KT 10SM CLR 07/M02 A3031 RMK A01
KVKS 151655Z AUTO 02007KT 10SM CLR 07/M03 A3032 RMK A01
KVKS 151635Z AUTO 36005KT 10SM CLR 07/M02 A3032 RMK A01
KVKS 151615Z AUTO 36007KT 10SM CLR 06/M02 A3032 RMK A01
KVKS 151555Z AUTO 36008KT 10SM CLR 06/M02 A3031 RMK A01
KVKS 151535Z AUTO 01007KT 10SM CLR 06/M01 A3031 RMK A01
KVKS 151515Z AUTO 36006KT 10SM CLR 05/M01 A3030 RMK A01
KVKS 151455Z AUTO 03004KT 10SM CLR 05/M02 A3027 RMK A01
KVKS 151435Z AUTO 02005KT 10SM CLR 05/M01 A3025 RMK A01
KVKS 151415Z AUTO 00000KT 10SM CLR 04/M01 A3025 RMK A01
KVKS 151355Z AUTO 36007KT 10SM CLR 04/M01 A3025 RMK A01
KVKS 151335Z AUTO 01008KT 10SM CLR 04/M01 A3023 RMK A01
KVKS 151315Z AUTO 36006KT 10SM CLR 03/M01 A3022 RMK A01
KVKS 151255Z AUTO 36007KT 10SM CLR 04/M01 A3022 RMK A01
KVKS 151235Z AUTO 36007KT 10SM CLR 04/M01 A3021 RMK A01
KVKS 151215Z AUTO 36005KT 10SM CLR 04/M01 A3021 RMK A01
KVKS 151155Z AUTO 35006KT 10SM CLR 04/M01 A3021 RMK A01
KVKS 151135Z AUTO 36007KT 10SM CLR 03/M01 A3019 RMK A01
KVKS 151115Z AUTO 36006KT 10SM CLR 04/M01 A3019 RMK A01
KVKS 151055Z AUTO 34004KT 10SM CLR 03/M01 A3019 RMK A01
KVKS 151035Z AUTO 36007KT 10SM FEW047 03/M01 A3017 RMK A01
KVKS 151015Z AUTO 01005KT 10SM FEW039 SCT050 04/M01 A3017 RMK A01
KVKS 150955Z AUTO 36006KT 10SM SCT039 SCT065 04/M01 A3017 RMK A01
KVKS 150935Z AUTO 01006KT 10SM FEW039 SCT065 05/M01 A3016 RMK A01
KVKS 150915Z AUTO 01006KT 10SM CLR 05/M01 A3016 RMK A01
KVKS 150855Z AUTO 01007KT 10SM CLR 05/M00 A3016 RMK A01
KVKS 150835Z AUTO 01006KT 10SM SCT080 05/M00 A3015 RMK A01
KVKS 150815Z AUTO 02005KT 10SM SCT080 06/M00 A3015 RMK A01
KVKS 150755Z AUTO 01006KT 10SM BKN080 06/00 A3015 RMK A01
KVKS 150735Z AUTO 01006G11KT 10SM BKN080 06/00 A3014 RMK A01
KVKS 150715Z AUTO 36008KT 10SM CLR 06/00 A3014 RMK A01
KVKS 150655Z AUTO 36008KT 10SM CLR 06/01 A3012 RMK A01
KVKS 150635Z AUTO 01005KT 10SM CLR 06/01 A3012 RMK A01
KVKS 150615Z AUTO 01005KT 10SM CLR 06/01 A3012 RMK A01
KVKS 150555Z AUTO 00000KT 10SM CLR 06/01 A3012 RMK A01
KVKS 150535Z AUTO 00000KT 10SM CLR 06/01 A3011 RMK A01
KVKS 150515Z AUTO 3.12500003KT 10SM CLR 07/01 A3011 RMK A01
KVKS 150455Z AUTO 02004KT 10SM CLR 08/01 A3011 RMK A01
KVKS 150435Z AUTO 03005G10KT 10SM FEW050 FEW055 08/01 A3011 RMK A01
KVKS 150415Z AUTO 02006KT 10SM FEW055 09/01 A3011 RMK A01
KVKS 150355Z AUTO 03007KT 10SM FEW050 FEW055 08/02 A3010 RMK A01
KVKS 150335Z AUTO 02006KT 10SM FEW050 FEW055 08/02 A3009 RMK A01
KVKS 150315Z AUTO 36004KT 10SM FEW046 FEW050 08/02 A3009 RMK A01
KVKS 150255Z AUTO 36004KT 10SM FEW048 06/03 A3009 RMK A01
KVKS 150235Z AUTO 00000KT 10SM CLR 06/04 A3008 RMK A01
KVKS 150215Z AUTO 35003KT 10SM CLR 06/03 A3007 RMK A01
KVKS 150155Z AUTO 00000KT 10SM CLR 07/04 A3006 RMK A01
KVKS 150135Z AUTO 00000KT 10SM CLR 07/04 A3005 RMK A01
KVKS 150115Z AUTO 00000KT 10SM CLR 08/04 A3005 RMK A01
KVKS 150055Z AUTO 00000KT 10SM CLR 08/04 A3004 RMK A01
KVKS 150035Z AUTO 00000KT 10SM CLR 08/04 A3004 RMK A01
KVKS 150015Z AUTO 00000KT 10SM FEW049 09/04 A3003 RMK A01
KVKS 142355Z AUTO 00000KT 10SM SCT048 09/04 A3003 RMK A01
KVKS 142335Z AUTO 00000KT 10SM CLR 10/03 A3002 RMK A01
KVKS 142315Z AUTO 00000KT 10SM CLR 10/03 A3001 RMK A01
KVKS 142255Z AUTO 00000KT 10SM CLR 12/03 A3000 RMK A01
KVKS 142235Z AUTO 00000KT 10SM CLR 12/03 A3000 RMK A01
KVKS 142215Z AUTO 00000KT 10SM CLR 13/02 A3000 RMK A01
KVKS 142155Z AUTO 00000KT 10SM CLR 13/02 A2999 RMK A01
KVKS 142135Z AUTO 00000KT 10SM CLR 13/02 A2999 RMK A01
KVKS 142115Z AUTO 30004KT 10SM CLR 13/03 A2998 RMK A01
KVKS 142055Z AUTO 00000KT 10SM CLR 13/02 A2999 RMK A01
KVKS 142035Z AUTO 19003KT 10SM CLR 14/02 A2998 RMK A01
KVKS 142015Z AUTO 20004KT 10SM CLR 15/02 A2998 RMK A01
KVKS 141955Z AUTO 00000KT 10SM CLR 14/02 A2999 RMK A01
KVKS 141935Z AUTO 04004KT 10SM CLR 14/02 A2999 RMK A01
KVKS 141915Z AUTO VRB04KT 10SM CLR 13/02 A2998 RMK A01
KVKS 141855Z AUTO 35005KT 10SM CLR 13/02 A2999 RMK A01
KVKS 141835Z AUTO 00000KT 10SM CLR 12/02 A3000 RMK A01
KVKS 141815Z AUTO 00000KT 10SM CLR 12/02 A3001 RMK A01
KVKS 141755Z AUTO 00000KT 10SM CLR 11/02 A3001 RMK A01
KVKS 141735Z AUTO 00000KT 10SM CLR 11/02 A3002 RMK A01
KVKS 141715Z AUTO 00000KT 10SM CLR 11/02 A3002 RMK A01
KVKS 141655Z AUTO 00000KT 10SM CLR 11/02 A3002 RMK A01
KVKS 141635Z AUTO 00000KT 10SM CLR 10/02 A3003 RMK A01
KVKS 141615Z AUTO VRB04KT 10SM CLR 10/03 A3003 RMK A01
KVKS 141555Z AUTO VRB03KT 10SM CLR 10/03 A3003 RMK A01
KVKS 141535Z AUTO 00000KT 10SM CLR 09/04 A3003 RMK A01
KVKS 141515Z AUTO 00000KT 10SM CLR 08/04 A3003 RMK A01
KVKS 141455Z AUTO 00000KT 10SM CLR 07/04 A3002 RMK A01
KVKS 141435Z AUTO 00000KT 10SM CLR 06/05 A3002 RMK A01
KVKS 141415Z AUTO 00000KT 10SM CLR 04/03 A3001 RMK A01
KVKS 141355Z AUTO 00000KT 10SM CLR 04/02 A3001 RMK A01
KVKS 141335Z AUTO 00000KT 10SM CLR 03/01 A2999 RMK A01
KVKS 141315Z AUTO 00000KT 10SM CLR 04/02 A2998 RMK A01
KVKS 141255Z AUTO 00000KT 10SM CLR 03/01 A2998 RMK A01
KVKS 141235Z AUTO 00000KT 10SM CLR 04/02 A2997 RMK A01
KVKS 141215Z AUTO 00000KT 10SM CLR 05/02 A2996 RMK A01
KVKS 141155Z AUTO 00000KT 10SM CLR 06/02 A2996 RMK A01